Time;durP1;ratioP1;P1;durP2;ratioP2;P2;SDS_P1;SDS_P2;PMS_P1;PMS_P2;Temp;Humidity;BMP_temperature;BMP_pressure;BME280_temperature;BME280_humidity;BME280_pressure;Samples;Min_cycle;Max_cycle;Signal;HPM_P1;HPM_P2
2023/03/04 00:00:25;;;;;;;2.70;0.35;;;17.60;64.20;;;;;;5049855;28;20041;-74
2023/03/04 00:02:52;;;;;;;2.53;1.02;;;17.60;64.20;;;;;;5050252;28;20073;-75
2023/03/04 00:05:18;;;;;;;1.50;0.47;;;17.60;64.20;;;;;;5037103;28;20410;-75
2023/03/04 00:07:45;;;;;;;2.15;0.30;;;17.60;64.20;;;;;;5029980;28;20084;-74
2023/03/04 00:10:13;;;;;;;1.95;0.45;;;17.60;64.20;;;;;;5028933;28;20053;-75
2023/03/04 00:12:40;;;;;;;2.17;0.32;;;17.60;64.20;;;;;;5028609;28;20057;-75
2023/03/04 00:15:08;;;;;;;2.20;0.50;;;17.60;64.20;;;;;;5028569;28;20139;-74
2023/03/04 00:17:36;;;;;;;1.88;0.32;;;17.60;64.20;;;;;;5033385;28;20128;-74
2023/03/04 00:20:03;;;;;;;1.85;0.32;;;17.60;64.20;;;;;;5032716;28;20486;-75
2023/03/04 00:22:30;;;;;;;1.20;0.40;;;17.60;64.20;;;;;;5034133;28;20132;-74
2023/03/04 00:24:57;;;;;;;2.33;0.40;;;17.60;64.20;;;;;;5032718;28;20053;-74
2023/03/04 00:27:24;;;;;;;2.30;0.45;;;17.60;64.20;;;;;;5032413;28;20057;-74
2023/03/04 00:29:51;;;;;;;2.33;0.30;;;17.60;64.20;;;;;;5053356;28;20055;-75
2023/03/04 00:32:18;;;;;;;1.75;0.35;;;17.60;64.20;;;;;;5053450;28;20053;-74
2023/03/04 00:34:46;;;;;;;3.47;0.32;;;17.60;64.20;;;;;;5053241;28;20041;-74
2023/03/04 00:37:13;;;;;;;1.80;0.40;;;17.60;64.20;;;;;;5053695;28;20052;-75
2023/03/04 00:39:40;;;;;;;2.13;0.30;;;17.60;64.20;;;;;;5052499;28;20474;-75
2023/03/04 00:42:07;;;;;;;1.98;0.30;;;17.60;64.10;;;;;;5052933;28;20485;-75
2023/03/04 00:44:34;;;;;;;2.65;0.65;;;17.60;64.10;;;;;;5053780;28;20045;-75
2023/03/04 00:47:01;;;;;;;2.60;0.28;;;17.60;64.10;;;;;;5051982;28;20053;-75
2023/03/04 00:49:28;;;;;;;2.10;0.50;;;17.60;64.10;;;;;;5053483;28;20053;-75
2023/03/04 00:51:56;;;;;;;1.80;0.30;;;17.60;64.10;;;;;;5053324;28;20060;-75
2023/03/04 00:54:23;;;;;;;2.05;0.30;;;17.60;64.10;;;;;;5053211;28;20055;-75
2023/03/04 00:56:50;;;;;;;1.65;0.40;;;17.60;64.10;;;;;;5051892;28;20057;-74
2023/03/04 00:59:17;;;;;;;2.40;0.32;;;17.60;64.10;;;;;;5053058;28;20053;-74
2023/03/04 01:01:44;;;;;;;2.97;0.50;;;17.60;64.10;;;;;;5053408;28;20052;-75
2023/03/04 01:04:11;;;;;;;2.63;0.32;;;17.60;64.10;;;;;;5042865;28;20050;-74
2023/03/04 01:06:38;;;;;;;2.05;0.45;;;17.60;64.00;;;;;;5033327;28;20054;-75
2023/03/04 01:09:07;;;;;;;1.73;0.50;;;17.60;64.00;;;;;;5032830;28;20537;-75
2023/03/04 01:11:34;;;;;;;1.45;0.47;;;17.60;64.10;;;;;;5033235;28;20129;-75
2023/03/04 01:14:01;;;;;;;2.05;0.43;;;17.60;64.10;;;;;;5032504;28;20077;-75
2023/03/04 01:16:28;;;;;;;1.67;0.40;;;17.60;64.00;;;;;;5032734;28;20095;-74
2023/03/04 01:18:55;;;;;;;1.65;0.50;;;17.50;64.00;;;;;;5031720;28;20649;-75
2023/03/04 01:21:22;;;;;;;1.65;0.47;;;17.60;64.00;;;;;;5032733;28;20053;-75
2023/03/04 01:23:49;;;;;;;1.77;0.60;;;17.50;64.00;;;;;;5031579;28;20064;-74
2023/03/04 01:26:17;;;;;;;3.78;0.52;;;17.50;63.90;;;;;;5032887;28;20053;-74
2023/03/04 01:28:44;;;;;;;1.35;0.25;;;17.50;64.00;;;;;;5030429;28;20096;-75
2023/03/04 01:31:11;;;;;;;2.35;0.52;;;17.60;64.00;;;;;;5032722;28;20050;-75
2023/03/04 01:33:38;;;;;;;3.08;0.45;;;17.60;64.00;;;;;;5035637;28;20049;-75
2023/03/04 01:36:06;;;;;;;1.40;0.28;;;17.50;64.00;;;;;;5051363;28;20502;-75
2023/03/04 01:38:32;;;;;;;1.88;0.38;;;17.50;64.00;;;;;;5051157;28;20045;-74
2023/03/04 01:40:59;;;;;;;2.83;0.40;;;17.50;64.00;;;;;;5052478;28;20045;-75
2023/03/04 01:43:30;;;;;;;1.88;0.30;;;17.50;64.00;;;;;;5051091;28;20071;-74
2023/03/04 01:45:58;;;;;;;3.42;0.22;;;17.50;64.00;;;;;;5052341;28;20506;-74
2023/03/04 01:48:28;;;;;;;1.65;0.20;;;17.50;63.90;;;;;;5051236;28;20517;-75
2023/03/04 01:50:55;;;;;;;2.00;0.50;;;17.50;63.90;;;;;;5051155;28;20060;-74
2023/03/04 01:53:24;;;;;;;1.77;0.30;;;17.60;63.90;;;;;;5052117;28;20060;-75
2023/03/04 01:55:53;;;;;;;3.53;0.50;;;17.60;63.90;;;;;;5052186;28;20052;-75
2023/03/04 01:58:20;;;;;;;1.88;0.30;;;17.60;63.80;;;;;;5052094;28;20060;-74
2023/03/04 02:00:48;;;;;;;1.73;0.20;;;17.60;63.80;;;;;;5052107;28;20049;-75
2023/03/04 02:03:19;;;;;;;1.90;0.35;;;17.60;63.70;;;;;;5067660;28;20064;-75
2023/03/04 02:05:50;;;;;;;2.55;0.50;;;17.70;63.70;;;;;;5052126;28;20098;-75
2023/03/04 02:08:19;;;;;;;3.03;0.22;;;17.80;63.60;;;;;;5052191;28;20049;-75
2023/03/04 02:10:46;;;;;;;2.00;0.32;;;17.80;63.60;;;;;;5050790;28;20067;-74
2023/03/04 02:13:14;;;;;;;2.25;0.30;;;17.90;63.50;;;;;;5050579;28;20049;-75
2023/03/04 02:15:42;;;;;;;2.17;0.30;;;17.90;63.40;;;;;;5051435;28;20057;-75
2023/03/04 02:18:16;;;;;;;2.53;0.30;;;18.00;63.40;;;;;;5050293;28;20490;-75
2023/03/04 02:20:50;;;;;;;1.70;0.32;;;18.00;63.20;;;;;;5050529;28;20072;-75
2023/03/04 02:23:22;;;;;;;1.50;0.30;;;18.10;63.10;;;;;;5050542;28;20053;-75
2023/03/04 02:25:55;;;;;;;1.50;0.22;;;18.20;63.00;;;;;;5051546;28;20065;-75
2023/03/04 02:28:23;;;;;;;2.13;0.32;;;18.20;63.00;;;;;;5051604;28;20055;-75
2023/03/04 02:30:51;;;;;;;1.27;0.47;;;18.20;62.90;;;;;;5050324;28;20045;-75
2023/03/04 02:33:19;;;;;;;1.30;0.20;;;18.30;62.90;;;;;;5043562;28;20053;-75
2023/03/04 02:35:46;;;;;;;2.13;0.20;;;18.30;62.90;;;;;;5030146;28;20065;-75
2023/03/04 02:38:13;;;;;;;2.72;0.38;;;18.30;62.80;;;;;;5031323;28;20085;-75
2023/03/04 02:40:43;;;;;;;1.17;0.20;;;18.30;62.80;;;;;;5031180;28;20046;-75
2023/03/04 02:43:11;;;;;;;1.92;0.20;;;18.30;62.80;;;;;;5029780;28;20053;-75
2023/03/04 02:45:42;;;;;;;1.30;0.22;;;18.30;62.90;;;;;;5031295;28;20396;-75
2023/03/04 02:48:10;;;;;;;1.42;0.25;;;18.30;62.90;;;;;;5031318;28;20049;-75
2023/03/04 02:50:41;;;;;;;2.25;0.30;;;18.30;62.90;;;;;;5030108;28;20127;-75
2023/03/04 02:53:08;;;;;;;1.75;0.40;;;18.30;62.90;;;;;;5029988;28;20491;-75
2023/03/04 02:55:35;;;;;;;2.13;0.22;;;18.20;62.90;;;;;;5031317;28;20053;-75
2023/03/04 02:58:02;;;;;;;2.35;0.35;;;18.20;62.90;;;;;;5029970;28;20048;-75
2023/03/04 03:00:29;;;;;;;2.58;0.35;;;18.20;62.90;;;;;;5030889;28;20049;-74
2023/03/04 03:02:58;;;;;;;2.13;0.30;;;18.20;63.00;;;;;;5029820;28;20041;-75
2023/03/04 03:05:27;;;;;;;1.42;0.25;;;18.10;62.90;;;;;;5029669;28;20064;-75
2023/03/04 03:07:54;;;;;;;1.30;0.20;;;18.10;63.00;;;;;;5029714;28;20824;-75
2023/03/04 03:10:21;;;;;;;2.40;0.20;;;18.10;63.00;;;;;;5029858;28;20052;-75
2023/03/04 03:12:48;;;;;;;1.70;0.22;;;18.10;63.00;;;;;;5030417;28;20068;-75
2023/03/04 03:15:16;;;;;;;1.50;0.40;;;18.10;63.00;;;;;;5029406;28;20057;-75
2023/03/04 03:17:43;;;;;;;2.20;0.63;;;18.10;63.10;;;;;;5029222;28;20049;-75
2023/03/04 03:20:13;;;;;;;1.58;0.20;;;18.10;63.10;;;;;;5029612;28;20095;-75
2023/03/04 03:22:40;;;;;;;1.33;0.25;;;18.10;63.10;;;;;;5030733;28;20052;-75
2023/03/04 03:25:09;;;;;;;1.02;0.20;;;18.00;63.10;;;;;;5029518;28;20054;-75
2023/03/04 03:27:36;;;;;;;2.35;0.65;;;18.00;63.20;;;;;;5029382;28;20055;-74
2023/03/04 03:30:04;;;;;;;2.28;0.30;;;18.00;63.10;;;;;;5029525;28;20105;-75
2023/03/04 03:32:31;;;;;;;1.33;0.38;;;18.00;63.20;;;;;;5039014;28;20051;-75
2023/03/04 03:34:58;;;;;;;1.88;0.38;;;18.00;63.20;;;;;;5049221;28;20049;-75
2023/03/04 03:37:27;;;;;;;1.55;0.20;;;18.00;63.20;;;;;;5050830;28;20067;-75
2023/03/04 03:39:54;;;;;;;1.02;0.30;;;17.90;63.20;;;;;;5051419;28;20401;-75
2023/03/04 03:42:21;;;;;;;1.85;0.38;;;17.90;63.20;;;;;;5050859;28;20506;-75
2023/03/04 03:44:49;;;;;;;1.25;0.52;;;17.90;63.20;;;;;;5049498;28;20186;-74
2023/03/04 03:47:16;;;;;;;2.83;0.45;;;17.90;63.20;;;;;;5050714;28;20055;-74
2023/03/04 03:49:42;;;;;;;2.40;0.50;;;17.90;63.20;;;;;;5049299;28;20064;-74
2023/03/04 03:52:10;;;;;;;1.27;0.20;;;17.90;63.20;;;;;;5052985;28;20049;-74
2023/03/04 03:54:38;;;;;;;1.73;0.20;;;17.80;63.20;;;;;;5054408;28;20102;-74
2023/03/04 03:57:05;;;;;;;2.58;0.20;;;17.80;63.20;;;;;;5052783;28;20052;-75
2023/03/04 03:59:32;;;;;;;1.35;0.52;;;17.80;63.30;;;;;;5054194;28;20053;-75
2023/03/04 04:01:59;;;;;;;1.10;0.10;;;17.80;63.80;;;;;;5052687;28;20048;-75
2023/03/04 04:04:26;;;;;;;1.83;0.20;;;17.80;63.30;;;;;;5036232;28;20053;-74
2023/03/04 04:06:53;;;;;;;1.90;0.35;;;17.80;63.30;;;;;;5032832;28;20422;-74
2023/03/04 04:09:20;;;;;;;1.20;0.10;;;17.70;63.30;;;;;;5032865;28;20049;-75
2023/03/04 04:11:48;;;;;;;1.80;0.22;;;17.70;63.30;;;;;;5032821;28;20057;-75
2023/03/04 04:14:15;;;;;;;1.88;0.20;;;17.70;63.30;;;;;;5033339;28;20402;-74
2023/03/04 04:16:42;;;;;;;2.10;0.20;;;17.70;63.30;;;;;;5033961;28;20045;-75
2023/03/04 04:19:16;;;;;;;2.53;0.30;;;17.70;63.30;;;;;;5034263;28;20053;-75
2023/03/04 04:21:43;;;;;;;1.50;0.20;;;17.70;63.30;;;;;;5032705;28;20057;-75
2023/03/04 04:24:10;;;;;;;1.63;0.20;;;17.70;63.30;;;;;;5032307;28;20046;-75
2023/03/04 04:26:37;;;;;;;0.95;0.20;;;17.70;63.30;;;;;;5033780;28;20061;-75
2023/03/04 04:29:05;;;;;;;2.45;0.25;;;17.70;63.40;;;;;;5032482;28;20092;-75
2023/03/04 04:31:32;;;;;;;1.73;0.20;;;17.70;63.30;;;;;;5032488;28;20588;-75
2023/03/04 04:33:59;;;;;;;2.88;0.40;;;17.70;63.30;;;;;;5033744;28;20049;-75
2023/03/04 04:36:26;;;;;;;2.42;0.20;;;17.60;63.30;;;;;;5033382;28;20053;-74
2023/03/04 04:38:53;;;;;;;1.75;0.20;;;17.70;63.40;;;;;;5032156;28;20057;-75
2023/03/04 04:41:22;;;;;;;1.70;0.28;;;17.60;63.30;;;;;;5033378;28;20053;-75
2023/03/04 04:43:49;;;;;;;1.55;0.20;;;17.70;63.40;;;;;;5033171;28;20049;-75
2023/03/04 04:46:18;;;;;;;1.90;0.40;;;17.60;63.30;;;;;;5033252;28;20053;-75
2023/03/04 04:48:45;;;;;;;1.40;0.17;;;17.60;63.30;;;;;;5032166;28;20056;-75
2023/03/04 04:51:13;;;;;;;1.10;0.20;;;17.60;63.30;;;;;;5031734;28;20049;-75
2023/03/04 04:53:39;;;;;;;1.58;0.13;;;17.60;63.30;;;;;;5032091;28;20057;-75
2023/03/04 04:56:11;;;;;;;1.55;0.30;;;17.60;63.30;;;;;;5031582;28;20073;-75
2023/03/04 04:58:38;;;;;;;3.70;0.30;;;17.60;63.30;;;;;;5031645;28;20388;-74
2023/03/04 05:01:05;;;;;;;1.85;0.22;;;17.60;63.30;;;;;;5035059;28;20052;-74
2023/03/04 05:03:35;;;;;;;1.25;0.20;;;17.60;63.30;;;;;;5031854;28;20054;-75
2023/03/04 05:06:02;;;;;;;;;;;17.50;63.20;;;;;;5033593;28;20049;-73
2023/03/04 05:08:29;;;;;;;2.13;0.32;;;17.50;63.20;;;;;;5032751;28;19947;-73
2023/03/04 05:10:56;;;;;;;2.35;0.32;;;17.60;63.30;;;;;;5032944;28;20142;-73
2023/03/04 05:13:23;;;;;;;1.73;0.20;;;17.60;63.30;;;;;;5031191;28;20053;-75
2023/03/04 05:15:52;;;;;;;1.42;0.20;;;17.50;63.20;;;;;;5031190;28;20068;-75
2023/03/04 05:18:20;;;;;;;2.10;0.40;;;17.50;63.20;;;;;;5032684;28;20058;-75
2023/03/04 05:20:52;;;;;;;1.50;0.10;;;17.60;63.30;;;;;;5031211;28;20138;-75
2023/03/04 05:23:19;;;;;;;1.75;0.15;;;17.50;63.20;;;;;;5032856;28;20045;-75
2023/03/04 05:25:46;;;;;;;1.17;0.10;;;17.50;63.20;;;;;;5031091;28;20078;-75
2023/03/04 05:28:13;;;;;;;1.73;0.30;;;17.50;63.30;;;;;;5032465;28;20053;-75
2023/03/04 05:30:41;;;;;;;2.35;0.40;;;17.50;63.30;;;;;;5032600;28;20049;-75
2023/03/04 05:33:09;;;;;;;2.88;0.25;;;17.50;63.20;;;;;;5044224;28;20060;-75
2023/03/04 05:35:36;;;;;;;1.45;0.20;;;17.50;63.20;;;;;;5052187;28;20490;-75
2023/03/04 05:38:07;;;;;;;1.30;0.30;;;17.50;63.20;;;;;;5052354;28;20114;-75
2023/03/04 05:40:34;;;;;;;1.08;0.20;;;17.50;63.20;;;;;;5051050;28;20508;-75
2023/03/04 05:43:01;;;;;;;1.75;0.30;;;17.50;63.20;;;;;;5052039;28;20052;-75
2023/03/04 05:45:28;;;;;;;1.10;0.20;;;17.60;63.20;;;;;;5052353;28;20064;-75
2023/03/04 05:47:55;;;;;;;1.10;0.20;;;17.60;63.10;;;;;;5051945;28;20099;-75
2023/03/04 05:50:23;;;;;;;1.65;0.10;;;17.60;63.10;;;;;;5050765;28;20048;-75
2023/03/04 05:52:50;;;;;;;0.73;0.13;;;17.70;63.10;;;;;;5051905;28;20053;-75
2023/03/04 05:55:19;;;;;;;1.33;0.28;;;17.70;63.00;;;;;;5050322;28;20147;-73
2023/03/04 05:57:46;;;;;;;1.08;0.15;;;17.80;62.90;;;;;;5051851;28;20045;-73
2023/03/04 06:00:15;;;;;;;1.40;0.20;;;17.80;62.80;;;;;;5051649;28;20529;-73
2023/03/04 06:02:43;;;;;;;1.33;0.17;;;17.90;62.80;;;;;;5047544;28;20045;-73
2023/03/04 06:05:11;;;;;;;1.73;0.20;;;18.00;62.70;;;;;;5030745;28;20487;-73
2023/03/04 06:07:38;;;;;;;1.92;0.28;;;18.00;62.60;;;;;;5030636;28;20045;-73
2023/03/04 06:10:06;;;;;;;1.10;0.10;;;18.10;62.60;;;;;;5031878;28;20053;-73
2023/03/04 06:12:35;;;;;;;0.95;0.10;;;18.10;62.40;;;;;;5030160;28;20625;-73
2023/03/04 06:15:02;;;;;;;1.30;0.20;;;18.20;62.40;;;;;;5029665;28;20046;-73
2023/03/04 06:17:29;;;;;;;0.95;0.32;;;18.20;62.30;;;;;;5030041;28;20049;-73
2023/03/04 06:19:56;;;;;;;2.08;0.10;;;18.30;62.30;;;;;;5031570;28;20049;-73
2023/03/04 06:22:23;;;;;;;1.27;0.10;;;18.30;62.30;;;;;;5031601;28;20056;-73
2023/03/04 06:24:50;;;;;;;1.40;0.10;;;18.30;62.30;;;;;;5031424;28;20057;-73
2023/03/04 06:27:17;;;;;;;1.75;0.17;;;18.30;62.30;;;;;;5031311;28;20053;-73
2023/03/04 06:29:45;;;;;;;1.40;0.13;;;18.30;62.30;;;;;;5029888;28;20049;-73
2023/03/04 06:32:12;;;;;;;1.67;0.30;;;18.30;62.30;;;;;;5043354;28;20045;-73
2023/03/04 06:34:39;;;;;;;1.55;0.13;;;18.30;62.40;;;;;;5049817;28;20056;-73
2023/03/04 06:37:06;;;;;;;1.92;0.10;;;18.20;62.40;;;;;;5050974;28;20052;-73
2023/03/04 06:39:33;;;;;;;1.10;0.20;;;18.20;62.40;;;;;;5051428;28;20052;-73
2023/03/04 06:42:00;;;;;;;1.73;0.10;;;18.20;63.10;;;;;;5051226;28;20068;-73
2023/03/04 06:44:27;;;;;;;1.40;0.20;;;18.20;62.50;;;;;;5050891;28;20056;-73
2023/03/04 06:46:55;;;;;;;1.77;0.30;;;18.20;62.50;;;;;;5050878;28;20048;-73
2023/03/04 06:49:22;;;;;;;1.52;0.10;;;18.10;62.50;;;;;;5049727;28;20494;-73
2023/03/04 06:51:49;;;;;;;1.25;0.20;;;18.10;62.50;;;;;;5049851;28;20064;-73
2023/03/04 06:54:16;;;;;;;1.35;0.20;;;18.20;62.60;;;;;;5049694;28;20053;-73
2023/03/04 06:56:43;;;;;;;1.52;0.20;;;18.20;62.70;;;;;;5049254;28;20064;-73
2023/03/04 06:59:10;;;;;;;1.20;0.25;;;18.10;62.70;;;;;;5050555;28;20056;-73
2023/03/04 07:01:37;;;;;;;1.10;0.20;;;18.10;62.70;;;;;;5048525;28;20056;-73
2023/03/04 07:04:05;;;;;;;1.55;0.25;;;18.10;62.70;;;;;;5030901;28;20056;-73
2023/03/04 07:06:32;;;;;;;1.67;0.20;;;18.00;62.70;;;;;;5029216;28;20053;-73
2023/03/04 07:08:59;;;;;;;1.40;0.20;;;18.00;62.70;;;;;;5029271;28;20060;-73
2023/03/04 07:11:27;;;;;;;1.67;0.20;;;18.00;62.80;;;;;;5029128;28;20052;-73
2023/03/04 07:13:54;;;;;;;0.95;0.22;;;18.00;62.80;;;;;;5029201;28;20064;-73
2023/03/04 07:16:22;;;;;;;0.80;0.20;;;17.90;62.80;;;;;;5030028;28;20064;-73
2023/03/04 07:18:50;;;;;;;1.40;0.20;;;17.90;62.90;;;;;;5030692;28;20100;-73
2023/03/04 07:21:18;;;;;;;1.13;0.20;;;17.90;62.90;;;;;;5029527;28;20054;-73
2023/03/04 07:23:46;;;;;;;0.88;0.15;;;17.90;62.90;;;;;;5029291;28;20049;-73
2023/03/04 07:26:13;;;;;;;1.23;0.10;;;17.90;63.00;;;;;;5028534;28;20157;-75
2023/03/04 07:28:41;;;;;;;1.50;0.30;;;17.90;63.00;;;;;;5030410;28;20068;-74
2023/03/04 07:31:10;;;;;;;1.85;0.30;;;17.90;63.00;;;;;;5029052;28;20103;-73
2023/03/04 07:33:37;;;;;;;0.88;0.20;;;17.90;63.00;;;;;;5028945;28;20664;-73
2023/03/04 07:36:04;;;;;;;1.70;0.28;;;17.90;63.10;;;;;;5030159;28;20499;-73
2023/03/04 07:38:33;;;;;;;1.73;0.20;;;17.80;63.10;;;;;;5030379;28;20060;-73
2023/03/04 07:41:00;;;;;;;1.33;0.30;;;17.80;63.10;;;;;;5029111;28;20061;-73
2023/03/04 07:43:27;;;;;;;0.70;0.10;;;17.80;63.10;;;;;;5029817;28;20060;-74
2023/03/04 07:46:00;;;;;;;1.45;0.22;;;17.80;63.10;;;;;;5029072;28;20115;-73
2023/03/04 07:48:27;;;;;;;0.98;0.10;;;17.80;63.10;;;;;;5030173;28;20508;-73
2023/03/04 07:51:04;;;;;;;1.75;0.30;;;17.80;63.20;;;;;;5029914;28;20045;-74
2023/03/04 07:53:33;;;;;;;2.03;0.35;;;17.70;63.20;;;;;;5030114;28;20108;-74
2023/03/04 07:56:00;;;;;;;1.60;0.40;;;17.80;63.20;;;;;;5030152;28;20053;-73
2023/03/04 07:58:27;;;;;;;1.80;0.20;;;17.80;63.20;;;;;;5028959;28;20503;-73
2023/03/04 08:00:54;;;;;;;1.92;0.22;;;17.70;63.20;;;;;;5032986;28;20056;-74
2023/03/04 08:03:21;;;;;;;1.08;0.17;;;17.70;63.20;;;;;;5048370;28;20045;-73
2023/03/04 08:05:48;;;;;;;1.80;0.30;;;17.70;63.20;;;;;;5048556;28;20049;-73
2023/03/04 08:08:15;;;;;;;0.93;0.20;;;17.70;63.20;;;;;;5048751;28;20075;-74
2023/03/04 08:10:44;;;;;;;1.15;0.20;;;17.70;63.30;;;;;;5048743;28;20088;-74
2023/03/04 08:13:11;;;;;;;2.17;0.13;;;17.70;63.30;;;;;;5049826;28;20049;-73
2023/03/04 08:15:40;;;;;;;1.90;0.25;;;17.70;63.30;;;;;;5050091;28;20060;-74
2023/03/04 08:18:07;;;;;;;2.30;0.70;;;17.70;63.30;;;;;;5050468;28;20052;-73
2023/03/04 08:20:34;;;;;;;1.27;0.20;;;17.70;63.40;;;;;;5050468;28;20068;-73
2023/03/04 08:23:01;;;;;;;1.90;0.32;;;17.70;63.40;;;;;;5050834;28;20053;-74
2023/03/04 08:25:28;;;;;;;1.60;0.22;;;17.70;63.30;;;;;;5048761;28;20053;-73
2023/03/04 08:27:56;;;;;;;1.38;0.22;;;17.60;63.30;;;;;;5050295;28;20049;-73
2023/03/04 08:30:23;;;;;;;1.38;0.40;;;17.70;63.40;;;;;;5048644;28;20513;-73
2023/03/04 08:32:50;;;;;;;2.28;0.30;;;17.60;63.30;;;;;;5048068;28;20049;-73
2023/03/04 08:35:17;;;;;;;1.42;0.13;;;17.60;63.30;;;;;;5048472;28;20056;-73
2023/03/04 08:37:44;;;;;;;2.00;0.20;;;17.60;63.30;;;;;;5051627;28;20052;-73
2023/03/04 08:40:13;;;;;;;2.15;0.20;;;17.60;63.30;;;;;;5053377;28;20057;-73
2023/03/04 08:42:40;;;;;;;1.48;0.30;;;17.60;63.40;;;;;;5053151;28;20053;-73
2023/03/04 08:45:10;;;;;;;1.42;0.20;;;17.60;63.30;;;;;;5053196;28;20122;-74
2023/03/04 08:47:37;;;;;;;1.27;0.20;;;17.70;63.40;;;;;;5051820;28;20052;-74
2023/03/04 08:50:06;;;;;;;1.55;0.20;;;17.60;63.40;;;;;;5051704;28;20064;-73
2023/03/04 08:52:33;;;;;;;1.58;0.30;;;17.60;63.40;;;;;;5052926;28;20526;-73
2023/03/04 08:55:00;;;;;;;1.23;0.20;;;17.60;63.40;;;;;;5053192;28;20044;-73
2023/03/04 08:57:27;;;;;;;1.45;0.20;;;17.60;63.40;;;;;;5052847;28;20060;-73
2023/03/04 08:59:54;;;;;;;1.85;0.35;;;17.60;63.40;;;;;;5051893;28;20437;-73
2023/03/04 09:02:22;;;;;;;1.33;0.43;;;17.60;63.40;;;;;;5043311;28;20049;-73
2023/03/04 09:04:49;;;;;;;1.08;0.20;;;17.60;63.40;;;;;;5031708;28;20066;-73
2023/03/04 09:07:16;;;;;;;2.10;0.30;;;17.60;63.40;;;;;;5031805;28;20510;-74
2023/03/04 09:09:43;;;;;;;1.27;0.40;;;17.60;63.40;;;;;;5031649;28;20061;-73
2023/03/04 09:12:10;;;;;;;2.55;0.50;;;17.60;63.40;;;;;;5031523;28;20057;-73
2023/03/04 09:14:37;;;;;;;2.30;0.35;;;17.60;63.40;;;;;;5031194;28;20414;-73
2023/03/04 09:17:05;;;;;;;1.60;0.43;;;17.60;63.40;;;;;;5031323;28;20143;-73
2023/03/04 09:19:34;;;;;;;1.75;0.20;;;17.60;63.40;;;;;;5031471;28;20049;-74
2023/03/04 09:22:01;;;;;;;1.20;0.10;;;17.60;63.40;;;;;;5031539;28;20482;-73
2023/03/04 09:24:28;;;;;;;2.05;0.20;;;17.60;63.40;;;;;;5032547;28;20053;-74
2023/03/04 09:26:55;;;;;;;1.92;0.20;;;17.60;63.40;;;;;;5032655;28;20065;-73
2023/03/04 09:29:23;;;;;;;1.35;0.22;;;17.60;63.40;;;;;;5031195;28;20056;-74
2023/03/04 09:31:50;;;;;;;1.33;0.30;;;17.60;63.40;;;;;;5048487;28;20061;-73
2023/03/04 09:34:17;;;;;;;2.97;0.22;;;17.60;63.40;;;;;;5052614;28;20052;-73
2023/03/04 09:36:45;;;;;;;1.70;0.25;;;17.60;63.40;;;;;;5050952;28;20058;-73
2023/03/04 09:39:12;;;;;;;2.28;0.30;;;17.60;64.00;;;;;;5052469;28;20059;-74
2023/03/04 09:41:43;;;;;;;1.38;0.30;;;17.60;63.40;;;;;;5052379;28;20057;-73
2023/03/04 09:44:18;;;;;;;1.35;0.22;;;17.60;63.40;;;;;;5050808;28;20053;-73
2023/03/04 09:46:47;;;;;;;1.65;0.20;;;17.60;63.50;;;;;;5052168;28;20080;-73
2023/03/04 09:49:16;;;;;;;1.50;0.20;;;17.60;63.40;;;;;;5050092;28;20048;-73
2023/03/04 09:51:51;;;;;;;1.58;0.30;;;17.60;63.40;;;;;;5051857;28;20055;-73
2023/03/04 09:54:27;;;;;;;1.52;0.57;;;17.60;63.50;;;;;;5050714;28;20564;-74
2023/03/04 09:56:57;;;;;;;;;;;17.50;63.40;;;;;;5052314;28;20490;-73
2023/03/04 09:59:27;;;;;;;1.85;0.22;;;17.60;63.40;;;;;;5051900;28;19921;-73
2023/03/04 10:01:55;;;;;;;1.40;0.20;;;17.60;63.40;;;;;;5047245;28;20057;-73
2023/03/04 10:04:32;;;;;;;0.90;0.30;;;17.60;63.40;;;;;;5030402;28;20057;-73
2023/03/04 10:07:01;;;;;;;0.77;0.20;;;17.60;63.40;;;;;;5031936;28;20055;-73
2023/03/04 10:09:32;;;;;;;1.10;0.22;;;17.60;64.00;;;;;;5031726;28;20057;-73
2023/03/04 10:12:03;;;;;;;1.83;0.20;;;17.60;63.50;;;;;;5030198;28;20154;-73
2023/03/04 10:14:44;;;;;;;0.88;0.20;;;17.60;63.40;;;;;;5030128;28;20041;-73
2023/03/04 10:17:16;;;;;;;1.60;0.20;;;17.60;63.50;;;;;;5031258;28;20051;-73
2023/03/04 10:19:55;;;;;;;1.15;0.30;;;17.60;63.50;;;;;;5032080;28;20056;-73
2023/03/04 10:22:31;;;;;;;1.20;0.30;;;17.60;63.50;;;;;;5031612;28;20068;-74
2023/03/04 10:25:01;;;;;;;1.27;0.20;;;17.60;63.50;;;;;;5030172;28;20053;-73
2023/03/04 10:27:29;;;;;;;2.10;0.47;;;17.60;63.50;;;;;;5031603;28;20053;-73
2023/03/04 10:30:00;;;;;;;1.45;0.30;;;17.60;63.50;;;;;;5031314;28;20127;-74
2023/03/04 10:32:27;;;;;;;2.00;0.20;;;17.60;63.50;;;;;;5041842;28;20056;-73
2023/03/04 10:34:53;;;;;;;1.65;0.30;;;17.60;63.50;;;;;;5030028;28;20049;-73
2023/03/04 10:37:20;;;;;;;1.63;0.20;;;17.60;63.50;;;;;;5030979;28;20510;-74
2023/03/04 10:39:50;;;;;;;1.60;0.38;;;17.60;63.50;;;;;;5030862;28;20052;-73
2023/03/04 10:42:35;;;;;;;0.98;0.20;;;17.60;63.50;;;;;;5031106;28;20410;-73
2023/03/04 10:45:03;;;;;;;2.30;0.28;;;17.60;63.50;;;;;;5031384;28;20132;-73
2023/03/04 10:47:34;;;;;;;2.00;0.40;;;17.60;63.60;;;;;;5031193;28;20057;-73
2023/03/04 10:50:03;;;;;;;0.85;0.20;;;17.60;63.50;;;;;;5030896;28;20045;-73
2023/03/04 10:52:32;;;;;;;1.10;0.20;;;17.60;63.50;;;;;;5029770;28;20061;-73
2023/03/04 10:55:02;;;;;;;1.20;0.10;;;17.60;63.50;;;;;;5029455;28;20054;-73
2023/03/04 10:57:35;;;;;;;2.97;0.30;;;17.60;63.50;;;;;;5030631;28;20192;-73
2023/03/04 11:00:03;;;;;;;2.35;0.20;;;17.60;63.40;;;;;;5033792;28;20068;-73
2023/03/04 11:02:32;;;;;;;1.88;0.32;;;17.60;63.40;;;;;;5049356;28;20440;-74
2023/03/04 11:05:15;;;;;;;1.92;0.20;;;17.60;63.50;;;;;;5050810;28;20049;-74
2023/03/04 11:07:44;;;;;;;1.45;0.15;;;17.60;63.50;;;;;;5050543;28;20049;-73
2023/03/04 11:10:17;;;;;;;1.42;0.13;;;17.70;63.50;;;;;;5050727;28;20052;-74
2023/03/04 11:12:49;;;;;;;2.25;0.30;;;17.60;63.40;;;;;;5050418;28;20041;-73
2023/03/04 11:15:23;;;;;;;2.58;0.30;;;17.60;63.40;;;;;;5050157;28;20068;-73
2023/03/04 11:17:54;;;;;;;1.30;0.20;;;17.70;63.50;;;;;;5050201;28;20110;-73
2023/03/04 11:20:30;;;;;;;1.45;0.32;;;17.70;63.50;;;;;;5048774;28;20052;-73
2023/03/04 11:23:01;;;;;;;1.35;0.20;;;17.70;63.50;;;;;;5050203;28;20493;-73
2023/03/04 11:25:33;;;;;;;1.80;0.20;;;17.70;63.50;;;;;;5049153;28;20057;-73
2023/03/04 11:28:04;;;;;;;1.20;0.22;;;17.70;63.50;;;;;;5048975;28;20635;-73
2023/03/04 11:30:43;;;;;;;1.40;0.20;;;17.70;63.50;;;;;;5050352;28;20128;-73
2023/03/04 11:33:19;;;;;;;1.48;0.40;;;17.70;63.50;;;;;;5049099;28;20057;-73
2023/03/04 11:35:57;;;;;;;1.48;0.30;;;17.80;63.50;;;;;;5050225;28;20060;-74
2023/03/04 11:38:29;;;;;;;1.65;0.38;;;17.70;64.00;;;;;;5048776;28;20106;-73
2023/03/04 11:41:03;;;;;;;0.88;0.10;;;17.70;63.40;;;;;;5050009;28;20041;-74
2023/03/04 11:43:35;;;;;;;1.30;0.30;;;17.80;63.50;;;;;;5048724;28;20052;-73
2023/03/04 11:46:44;;;;;;;2.30;0.28;;;17.70;63.40;;;;;;5050196;28;20053;-74
2023/03/04 11:49:29;;;;;;;0.90;0.30;;;17.70;63.40;;;;;;5038969;28;20057;-73
2023/03/04 11:52:03;;;;;;;1.45;0.30;;;17.80;63.50;;;;;;5050009;28;20120;-73
2023/03/04 11:54:34;;;;;;;2.38;0.20;;;17.80;63.50;;;;;;5049876;28;20053;-73
2023/03/04 11:57:11;;;;;;;0.75;0.10;;;17.80;63.50;;;;;;5048789;28;20422;-74
2023/03/04 11:59:53;;;;;;;1.20;0.10;;;17.80;63.40;;;;;;5050164;28;20118;-73
2023/03/04 12:02:22;;;;;;;1.33;0.30;;;17.80;63.40;;;;;;5033167;28;20064;-74
2023/03/04 12:05:29;;;;;;;1.33;0.70;;;17.80;63.40;;;;;;5028633;28;20418;-73
2023/03/04 12:08:24;;;;;;;1.15;0.20;;;17.80;63.40;;;;;;5027899;28;20889;-73
2023/03/04 12:10:58;;;;;;;1.63;0.20;;;17.90;63.50;;;;;;5030140;28;20062;-74
2023/03/04 12:13:41;;;;;;;1.85;0.22;;;17.80;63.40;;;;;;5033108;28;20073;-74
2023/03/04 12:16:26;;;;;;;1.80;0.25;;;17.80;63.40;;;;;;5033690;28;20071;-74
2023/03/04 12:19:07;;;;;;;1.40;0.20;;;17.80;63.40;;;;;;5033886;28;20053;-74
2023/03/04 12:21:54;;;;;;;1.35;0.30;;;17.90;63.40;;;;;;5033545;28;20061;-74
2023/03/04 12:24:50;;;;;;;2.08;0.32;;;17.90;63.40;;;;;;5032531;28;20501;-73
2023/03/04 12:27:24;;;;;;;2.10;0.30;;;17.90;63.50;;;;;;5046662;28;20053;-73
2023/03/04 12:29:58;;;;;;;1.52;0.30;;;17.90;63.40;;;;;;5040229;28;20052;-74
2023/03/04 12:32:35;;;;;;;2.80;0.50;;;17.90;63.40;;;;;;5052475;28;20084;-73
2023/03/04 12:35:17;;;;;;;1.35;0.25;;;17.90;63.40;;;;;;5052132;28;20052;-74
2023/03/04 12:38:01;;;;;;;2.63;0.20;;;17.90;63.40;;;;;;5051866;28;20053;-74
2023/03/04 12:40:38;;;;;;;1.55;0.40;;;17.90;63.40;;;;;;5051863;28;20055;-74
2023/03/04 12:43:26;;;;;;;1.33;0.17;;;17.90;63.40;;;;;;5051902;28;20111;-73
2023/03/04 12:46:04;;;;;;;1.75;0.10;;;17.90;63.50;;;;;;5049166;28;20127;-73
2023/03/04 12:48:35;;;;;;;1.65;0.20;;;17.90;63.40;;;;;;5053415;28;20520;-74
2023/03/04 12:51:15;;;;;;;1.15;0.20;;;17.90;63.40;;;;;;5053218;28;20045;-74
2023/03/04 12:53:52;;;;;;;1.45;0.20;;;17.90;63.40;;;;;;5052123;28;20391;-74
2023/03/04 12:56:26;;;;;;;1.73;0.20;;;17.90;63.50;;;;;;5053524;28;20064;-74
2023/03/04 12:58:54;;;;;;;1.83;0.30;;;17.90;63.40;;;;;;5053091;28;20045;-74